Decoded Metar for LFLS (GRENOBLE in FRANCE) (IATA:GNB) | Meteo·Mobile Aviation Weather
aviador You're here:

LFLS Decoded Metar

GRENOBLE in FRANCE
Report Time2018-10-20 16:30:00
UTC Time2018-10-20 16:43:38
Flight Rules vfr VFR
Wind340° at 08 kt
W.Decomp.*RWY 27: 2.7 kt HW 7.5 kt RCW
W.Rank340° ranks 8
Current wind is below 340° avg. (8.1)
Visibility9000 m
Phenomena:N/A
Clouds:N/A
Expected CloudBase > 2,000 ft AGL from Temp-Dew spread
CeilingNone
Temp15°C (ISA +3)
Dew Point10°C (72% RH)
AAT12.2°C
QNH1025 hPa
Density Alt1,329 ft
Elevation1,266 ft
Report Wrong Elevation
Raw Report
METAR LFLS 201630Z AUTO 34008KT 9000 NSC 15/10 Q1025 NOSIG=

Extra information for LFLS:More info

Metar Taf Metar & Taf Last 4 Metars F.Rules Stats Wind Profile Meteogram Temp Stats Airport Information Weather charts Add Link Nearby VenuesMetar ALERT Operation Metar Decoded Social comments